Time;durP1;ratioP1;P1;durP2;ratioP2;P2;SDS_P1;SDS_P2;PMS_P1;PMS_P2;Temp;Humidity;BMP_temperature;BMP_pressure;BME280_temperature;BME280_humidity;BME280_pressure;Samples;Min_cycle;Max_cycle;Signal;HPM_P1;HPM_P2
2022/01/05 00:02:48;;;;;;;4.75;4.35;;;;;;;6.89;97.67;98394.84;10437160;28;20499;-66
2022/01/05 00:07:49;;;;;;;4.40;4.00;;;;;;;6.85;96.41;98394.31;10439193;28;20049;-66
2022/01/05 00:12:51;;;;;;;5.53;4.18;;;;;;;6.88;97.27;98398.47;10427309;28;20538;-66
2022/01/05 00:17:52;;;;;;;5.68;4.55;;;;;;;6.78;97.44;98395.03;10436202;28;20144;-66
2022/01/05 00:22:54;;;;;;;5.05;4.65;;;;;;;6.84;97.79;98389.97;10436428;28;20127;-66
2022/01/05 00:27:55;;;;;;;5.65;4.65;;;;;;;6.92;97.41;98373.41;10452352;28;20055;-67
2022/01/05 00:32:57;;;;;;;6.35;5.75;;;;;;;7.01;97.33;98364.59;10437418;28;20496;-66
2022/01/05 00:38:01;;;;;;;5.53;5.03;;;;;;;7.04;96.82;98361.66;10441009;28;20570;-67
2022/01/05 00:43:17;;;;;;;5.75;5.25;;;;;;;7.02;96.62;98355.66;10471278;28;20662;-64
2022/01/05 00:48:18;;;;;;;5.15;4.75;;;;;;;6.98;96.51;98345.53;10477939;28;20520;-58
2022/01/05 00:53:19;;;;;;;4.63;4.22;;;;;;;6.99;96.04;98348.00;10488829;28;20051;-60
2022/01/05 00:58:21;;;;;;;5.53;4.60;;;;;;;6.80;96.57;98332.25;10482405;28;20156;-58
2022/01/05 01:03:23;;;;;;;4.35;4.00;;;;;;;6.94;95.80;98350.28;10484872;28;20080;-63
2022/01/05 01:08:25;;;;;;;4.55;4.18;;;;;;;6.86;96.42;98342.22;10481689;28;20135;-58
2022/01/05 01:13:26;;;;;;;5.85;4.35;;;;;;;6.97;96.49;98334.13;10486051;28;20064;-58
2022/01/05 01:18:27;;;;;;;6.13;4.80;;;;;;;6.83;96.96;98332.81;10478908;28;20757;-58
2022/01/05 01:23:29;;;;;;;4.93;4.35;;;;;;;6.75;97.31;98339.78;10480410;28;20060;-58
2022/01/05 01:28:30;;;;;;;4.70;4.30;;;;;;;6.78;96.94;98344.78;10486729;28;20130;-58
2022/01/05 01:33:32;;;;;;;5.50;5.00;;;;;;;6.79;96.65;98351.75;10469618;28;20134;-57
2022/01/05 01:38:34;;;;;;;5.43;4.93;;;;;;;6.73;96.87;98358.44;10475458;28;20128;-57
2022/01/05 01:43:36;;;;;;;5.20;4.72;;;;;;;6.76;96.96;98366.09;10484488;28;20063;-59
2022/01/05 01:48:38;;;;;;;5.05;4.65;;;;;;;6.74;97.12;98357.47;10486432;28;20163;-57
2022/01/05 01:53:40;;;;;;;4.78;4.38;;;;;;;6.63;97.48;98333.84;10488192;28;20127;-58
2022/01/05 01:58:44;;;;;;;4.47;4.07;;;;;;;6.68;97.76;98364.19;10483012;28;20078;-58
2022/01/05 02:03:45;;;;;;;4.57;4.18;;;;;;;6.79;98.25;98367.63;10478418;28;20078;-58
2022/01/05 02:08:48;;;;;;;4.72;4.20;;;;;;;6.81;97.18;98360.38;10477600;28;20044;-58
2022/01/05 02:13:49;;;;;;;4.32;3.92;;;;;;;6.87;96.83;98370.34;10470961;28;20135;-58
2022/01/05 02:19:00;;;;;;;4.82;4.32;;;;;;;6.82;96.70;98380.56;10479079;27;20123;-59
2022/01/05 02:24:03;;;;;;;3.80;3.40;;;;;;;6.76;96.11;98386.44;10482865;28;20048;-58
2022/01/05 02:29:05;;;;;;;3.58;3.20;;;;;;;6.87;96.23;98386.22;10478598;28;20047;-57
2022/01/05 02:34:06;;;;;;;3.47;2.90;;;;;;;6.94;95.41;98408.47;10472116;28;20127;-58
2022/01/05 02:39:08;;;;;;;1.08;0.50;;;;;;;6.48;88.29;98447.97;10480065;28;20124;-58
2022/01/05 02:44:09;;;;;;;0.50;0.10;;;;;;;5.83;88.25;98482.03;10473831;28;20493;-58
2022/01/05 02:49:11;;;;;;;0.03;0.00;;;;;;;5.46;86.95;98464.16;10477870;28;20076;-60
2022/01/05 02:54:12;;;;;;;1.48;0.10;;;;;;;5.40;87.02;98475.25;10480843;28;20052;-59
2022/01/05 02:59:13;;;;;;;0.63;0.20;;;;;;;5.44;82.94;98497.78;10481896;28;20053;-58
2022/01/05 03:04:15;;;;;;;0.20;0.03;;;;;;;5.45;82.50;98499.41;10473065;28;20044;-57
2022/01/05 03:09:16;;;;;;;0.47;0.15;;;;;;;5.54;82.70;98532.94;10476183;28;20151;-58
2022/01/05 03:14:19;;;;;;;0.30;0.17;;;;;;;5.31;82.00;98530.50;10475898;28;20078;-58
2022/01/05 03:19:20;;;;;;;0.43;0.22;;;;;;;5.68;81.02;98537.03;10482877;28;20728;-58
2022/01/05 03:24:22;;;;;;;0.95;0.32;;;;;;;5.94;80.06;98558.47;10473798;28;20137;-59
2022/01/05 03:29:23;;;;;;;0.50;0.20;;;;;;;5.59;81.41;98572.97;10474139;28;20055;-59
2022/01/05 03:34:26;;;;;;;0.40;0.20;;;;;;;5.30;80.49;98581.59;10481503;28;20789;-57
2022/01/05 03:39:28;;;;;;;0.93;0.17;;;;;;;5.30;80.72;98575.50;10482374;28;20143;-58
2022/01/05 03:44:29;;;;;;;1.02;0.20;;;;;;;5.09;76.75;98586.06;10479235;28;20194;-58
2022/01/05 03:49:30;;;;;;;2.05;0.30;;;;;;;5.03;77.79;98608.50;10474450;28;20079;-58
2022/01/05 03:54:32;;;;;;;1.20;0.32;;;;;;;4.93;77.59;98624.25;10480686;28;20529;-59
2022/01/05 03:59:34;;;;;;;0.47;0.10;;;;;;;4.81;74.59;98642.91;10473695;28;20135;-58
2022/01/05 04:04:36;;;;;;;1.60;0.25;;;;;;;4.63;76.56;98645.25;10476466;28;20521;-58
2022/01/05 04:09:37;;;;;;;1.75;0.40;;;;;;;5.01;79.54;98660.53;10472762;28;20359;-58
2022/01/05 04:14:39;;;;;;;0.80;0.20;;;;;;;4.85;76.60;98670.66;10477781;28;20071;-58
2022/01/05 04:19:40;;;;;;;1.23;0.40;;;;;;;4.74;73.75;98696.13;10478127;28;20511;-58
2022/01/05 04:24:42;;;;;;;1.30;0.47;;;;;;;4.86;75.58;98722.44;10475153;28;20125;-58
2022/01/05 04:29:43;;;;;;;1.27;0.65;;;;;;;4.74;72.07;98708.44;10480184;28;20139;-59
2022/01/05 04:34:45;;;;;;;2.70;1.13;;;;;;;4.78;73.78;98739.72;10486771;28;20048;-59
2022/01/05 04:40:09;;;;;;;4.78;1.10;;;;;;;5.02;73.29;98748.41;10482551;28;20464;-58
2022/01/05 04:45:11;;;;;;;3.33;0.38;;;;;;;5.04;71.81;98772.84;10484201;28;20048;-58
2022/01/05 04:50:15;;;;;;;1.77;0.60;;;;;;;5.08;72.75;98782.19;10486292;28;20052;-59
2022/01/05 04:55:16;;;;;;;1.17;0.30;;;;;;;4.96;72.17;98800.69;10482404;28;20389;-59
2022/01/05 05:00:18;;;;;;;2.13;0.40;;;;;;;4.79;73.84;98803.84;10487838;28;20465;-58
2022/01/05 05:05:19;;;;;;;1.50;0.80;;;;;;;4.78;73.90;98818.81;10483385;28;20079;-59
2022/01/05 05:10:20;;;;;;;3.97;1.98;;;;;;;4.51;72.90;98835.00;10480429;28;20147;-58
2022/01/05 05:15:22;;;;;;;4.05;2.10;;;;;;;4.65;72.66;98848.91;10482745;28;20133;-58
2022/01/05 05:20:23;;;;;;;6.22;2.70;;;;;;;4.77;72.79;98858.47;10510831;28;20044;-56
2022/01/05 05:25:25;;;;;;;2.53;1.77;;;;;;;4.86;74.00;98870.94;10499906;28;20044;-58
2022/01/05 05:30:27;;;;;;;5.45;2.75;;;;;;;4.95;73.47;98867.59;10487367;28;20086;-56
2022/01/05 05:35:29;;;;;;;4.63;2.13;;;;;;;5.02;72.64;98875.00;10483467;28;20143;-57
2022/01/05 05:40:31;;;;;;;3.30;1.88;;;;;;;5.10;74.10;98869.94;10477770;28;20143;-57
2022/01/05 05:45:32;;;;;;;4.90;2.00;;;;;;;5.10;72.29;98880.50;10490898;28;20114;-58
2022/01/05 05:50:34;;;;;;;4.88;2.30;;;;;;;4.83;72.48;98879.06;10477058;28;20063;-58
2022/01/05 05:55:35;;;;;;;6.47;2.28;;;;;;;4.77;72.07;98890.09;10478914;28;25287;-58
2022/01/05 06:00:36;;;;;;;5.20;2.13;;;;;;;4.78;71.75;98918.16;10451485;28;20678;-58
2022/01/05 06:05:38;;;;;;;20.48;2.80;;;;;;;4.66;71.34;98924.38;10475792;28;20054;-58
2022/01/05 06:10:39;;;;;;;3.38;1.52;;;;;;;4.52;70.20;98902.56;10481230;28;20048;-58
2022/01/05 06:15:41;;;;;;;6.25;1.90;;;;;;;4.65;69.03;98949.06;10473830;27;20048;-58
2022/01/05 06:20:42;;;;;;;6.78;1.42;;;;;;;4.58;66.32;98960.06;10478038;28;20260;-58
2022/01/05 06:25:44;;;;;;;5.47;1.70;;;;;;;4.40;65.67;98958.84;10484242;28;20054;-58
2022/01/05 06:30:45;;;;;;;4.18;1.13;;;;;;;4.04;65.96;98997.50;10476966;28;20658;-58
2022/01/05 06:35:47;;;;;;;5.03;1.63;;;;;;;4.14;67.69;99003.75;10477394;28;20058;-58
2022/01/05 06:40:49;;;;;;;4.40;1.33;;;;;;;4.01;67.17;99005.63;10480726;27;20121;-58
2022/01/05 06:45:50;;;;;;;4.13;1.70;;;;;;;4.28;66.57;99007.16;10481801;27;20048;-58
2022/01/05 06:50:53;;;;;;;6.05;1.70;;;;;;;3.73;65.74;99018.16;10486306;28;20063;-58
2022/01/05 06:55:54;;;;;;;4.35;1.77;;;;;;;3.86;70.45;99037.38;10482938;27;20485;-58
2022/01/05 07:00:56;;;;;;;2.25;0.98;;;;;;;3.89;66.83;99047.69;10479754;28;20211;-58
2022/01/05 07:05:57;;;;;;;4.95;1.80;;;;;;;4.16;66.78;99051.06;10480697;28;20052;-57
2022/01/05 07:10:59;;;;;;;3.30;1.42;;;;;;;4.03;66.59;99051.94;10487443;28;20210;-57
2022/01/05 07:16:01;;;;;;;3.65;1.58;;;;;;;4.07;65.25;99052.59;10485734;28;20196;-57
2022/01/05 07:21:02;;;;;;;6.68;1.55;;;;;;;3.91;66.82;99062.56;10483712;28;20056;-58
2022/01/05 07:26:04;;;;;;;6.18;2.30;;;;;;;3.79;65.20;99073.00;10472954;28;20057;-56
2022/01/05 07:31:06;;;;;;;4.15;1.65;;;;;;;3.75;65.24;99082.03;10477104;28;20055;-57
2022/01/05 07:36:07;;;;;;;6.25;1.42;;;;;;;3.61;64.51;99090.09;10469653;28;20048;-57
2022/01/05 07:41:09;;;;;;;6.32;1.50;;;;;;;3.52;64.10;99102.09;10475952;28;20048;-57
2022/01/05 07:46:10;;;;;;;3.38;1.20;;;;;;;3.53;64.07;99102.00;10479576;28;20052;-57
2022/01/05 07:51:12;;;;;;;3.22;1.60;;;;;;;3.57;63.60;99107.03;10476448;28;20131;-59
2022/01/05 07:56:14;;;;;;;5.82;2.40;;;;;;;3.71;65.01;99118.28;10479323;28;20044;-60
2022/01/05 08:01:18;;;;;;;4.93;1.50;;;;;;;3.75;65.92;99125.97;10473908;28;20048;-59
2022/01/05 08:06:20;;;;;;;4.68;1.25;;;;;;;3.82;66.00;99141.22;10477622;28;20128;-57
2022/01/05 08:11:22;;;;;;;4.22;2.08;;;;;;;3.91;64.16;99149.44;10486169;28;20062;-57
2022/01/05 08:16:24;;;;;;;3.88;1.20;;;;;;;4.07;64.04;99155.31;10481499;27;20044;-57
2022/01/05 08:21:25;;;;;;;3.97;1.50;;;;;;;4.07;64.25;99164.03;10491620;27;20048;-57
2022/01/05 08:26:27;;;;;;;5.35;1.25;;;;;;;4.25;64.20;99159.25;10483539;27;20062;-59
2022/01/05 08:31:28;;;;;;;5.43;1.42;;;;;;;3.94;62.95;99149.22;10488468;27;20188;-58
2022/01/05 08:36:29;;;;;;;7.72;2.03;;;;;;;4.02;62.47;99181.09;10491404;28;20057;-57
2022/01/05 08:41:31;;;;;;;6.07;1.70;;;;;;;4.06;61.82;99179.94;10483935;28;20051;-56
2022/01/05 08:46:32;;;;;;;3.80;1.50;;;;;;;3.94;61.43;99183.44;10489156;28;20986;-57
2022/01/05 08:51:37;;;;;;;2.58;1.20;;;;;;;3.87;62.36;99197.03;10484943;27;20059;-57
2022/01/05 08:56:38;;;;;;;4.25;1.30;;;;;;;3.92;61.47;99195.84;10485178;27;20132;-58
2022/01/05 09:01:42;;;;;;;6.10;1.67;;;;;;;3.96;62.37;99202.59;10482825;28;20143;-57
2022/01/05 09:06:44;;;;;;;4.82;2.33;;;;;;;4.05;61.90;99215.13;10486625;27;20053;-57
2022/01/05 09:11:46;;;;;;;3.17;1.85;;;;;;;4.26;61.09;99228.56;10486782;28;20113;-57
2022/01/05 09:16:49;;;;;;;6.65;1.52;;;;;;;4.61;59.68;99227.88;10483529;27;20554;-58
2022/01/05 09:21:51;;;;;;;4.75;1.73;;;;;;;4.93;59.83;99243.13;10480515;28;20125;-58
2022/01/05 09:27:12;;;;;;;8.27;2.30;;;;;;;5.22;58.37;99229.59;10485857;27;20745;-59
2022/01/05 09:32:14;;;;;;;4.03;2.10;;;;;;;5.29;58.15;99252.75;10483490;27;20139;-55
2022/01/05 09:37:26;;;;;;;11.32;2.22;;;;;;;5.23;58.53;99258.50;10488923;28;20135;-56
2022/01/05 09:42:30;;;;;;;2.80;1.67;;;;;;;4.93;58.99;99248.41;10485469;27;20464;-57
2022/01/05 09:47:58;;;;;;;7.07;2.20;;;;;;;4.78;59.14;99251.19;10484118;28;20056;-57
2022/01/05 09:53:00;;;;;;;6.40;2.22;;;;;;;4.65;59.15;99245.13;10483327;27;20044;-57
2022/01/05 09:58:02;;;;;;;10.35;4.28;;;;;;;4.99;60.64;99274.34;10478377;27;20711;-57
2022/01/05 10:03:07;;;;;;;6.82;3.15;;;;;;;4.83;58.96;99263.22;10479285;27;20430;-57
2022/01/05 10:08:09;;;;;;;;;;;;;;;4.27;60.13;99213.63;10476183;28;20052;-57
2022/01/05 10:13:10;;;;;;;7.18;1.90;;;;;;;4.65;59.83;99276.75;10482085;28;20069;-57
2022/01/05 10:18:16;;;;;;;8.85;1.90;;;;;;;4.52;60.17;99279.44;10485113;27;20172;-57
2022/01/05 10:23:35;;;;;;;8.27;2.03;;;;;;;4.54;60.30;99280.16;10487100;27;20131;-52
2022/01/05 10:28:37;;;;;;;4.45;2.17;;;;;;;4.70;62.01;99290.47;10487935;27;20051;-52
2022/01/05 10:33:38;;;;;;;11.93;5.07;;;;;;;4.85;60.69;99295.56;10481929;27;20082;-53
2022/01/05 10:38:58;;;;;;;6.65;2.38;;;;;;;4.92;59.08;99296.81;10481250;27;20063;-65
2022/01/05 10:44:18;;;;;;;5.43;1.50;;;;;;;4.96;60.76;99301.75;10481979;27;20465;-54
2022/01/05 10:49:27;;;;;;;6.70;1.95;;;;;;;5.05;59.24;99299.44;10484215;27;20061;-65
2022/01/05 10:54:30;;;;;;;6.10;2.33;;;;;;;4.77;59.11;99290.84;10479430;28;20059;-58
2022/01/05 10:59:37;;;;;;;8.00;3.30;;;;;;;4.88;59.04;99296.22;10478476;27;20080;-58
2022/01/05 11:04:40;;;;;;;8.52;2.10;;;;;;;4.71;59.85;99301.84;10474511;27;20062;-58
2022/01/05 11:10:01;;;;;;;6.40;2.00;;;;;;;4.65;59.97;99300.47;10479325;27;20052;-55
2022/01/05 11:15:31;;;;;;;5.03;2.08;;;;;;;4.64;59.42;99295.31;10482927;27;20524;-56
2022/01/05 11:20:33;;;;;;;8.73;2.83;;;;;;;4.78;60.42;99303.94;10472567;28;20496;-56
2022/01/05 11:25:36;;;;;;;7.70;2.13;;;;;;;4.80;59.67;99288.00;10474346;28;20043;-56
2022/01/05 11:30:38;;;;;;;6.25;1.90;;;;;;;4.84;58.75;99300.03;10483268;28;20497;-63
2022/01/05 11:35:40;;;;;;;5.28;1.92;;;;;;;4.96;59.81;99291.22;10482848;28;20047;-57
2022/01/05 11:40:51;;;;;;;5.53;1.70;;;;;;;4.80;58.78;99276.63;10492427;27;20509;-56
2022/01/05 11:45:53;;;;;;;5.63;2.00;;;;;;;4.87;59.51;99283.16;10499445;27;20135;-56
2022/01/05 11:51:02;;;;;;;6.43;1.88;;;;;;;4.85;58.85;99283.25;10497086;27;20067;-56
2022/01/05 11:56:32;;;;;;;7.40;1.35;;;;;;;4.79;59.45;99278.44;10493428;27;20048;-56
2022/01/05 12:01:36;;;;;;;7.60;1.80;;;;;;;4.80;59.35;99268.72;10492924;27;20512;-57
2022/01/05 12:06:43;;;;;;;3.75;1.63;;;;;;;4.84;59.94;99265.75;10492317;27;20428;-57
2022/01/05 12:11:45;;;;;;;5.22;2.00;;;;;;;5.17;58.84;99263.41;10488539;27;20902;-59
2022/01/05 12:16:55;;;;;;;7.15;1.77;;;;;;;4.98;59.27;99230.44;10513821;27;20048;-57
2022/01/05 12:21:59;;;;;;;9.90;2.30;;;;;;;5.12;59.15;99276.94;10497087;27;20919;-57
2022/01/05 12:27:21;;;;;;;4.93;1.73;;;;;;;5.17;59.21;99280.06;10494235;27;20619;-57
2022/01/05 12:32:40;;;;;;;3.13;1.20;;;;;;;5.10;59.92;99297.28;10494691;27;20124;-57
2022/01/05 12:37:47;;;;;;;5.15;2.10;;;;;;;5.08;59.31;99294.75;10493432;27;20127;-57
2022/01/05 12:43:09;;;;;;;5.43;1.45;;;;;;;5.04;59.74;99303.00;10479035;23;20125;-56
2022/01/05 12:48:36;;;;;;;3.97;1.45;;;;;;;4.98;60.92;99303.47;10466685;28;20672;-56
2022/01/05 12:54:07;;;;;;;4.32;1.63;;;;;;;5.01;59.88;99311.16;10428310;28;20036;-57
2022/01/05 12:59:16;;;;;;;4.57;1.30;;;;;;;4.89;60.46;99289.97;10447877;28;20144;-58
2022/01/05 13:04:18;;;;;;;6.60;1.55;;;;;;;4.83;60.23;99285.13;10443047;28;20056;-57
2022/01/05 13:09:26;;;;;;;5.95;1.63;;;;;;;4.72;61.20;99267.47;10426955;28;20040;-56
2022/01/05 13:14:48;;;;;;;6.75;1.52;;;;;;;4.80;60.94;99279.25;10434449;28;20171;-56
2022/01/05 13:19:55;;;;;;;4.25;1.50;;;;;;;4.98;60.86;99304.28;10443803;28;20205;-57
2022/01/05 13:24:59;;;;;;;6.10;1.60;;;;;;;4.94;60.98;99277.31;10435359;28;20132;-57
2022/01/05 13:30:05;;;;;;;4.88;1.40;;;;;;;5.00;61.14;99312.09;10451704;28;20066;-57
2022/01/05 13:35:10;;;;;;;4.22;1.50;;;;;;;5.09;61.50;99301.72;10441906;28;20116;-56
2022/01/05 13:40:20;;;;;;;2.88;1.35;;;;;;;5.05;60.86;99300.25;10441221;28;20097;-56
2022/01/05 13:45:30;;;;;;;6.93;2.05;;;;;;;4.99;61.20;99294.59;10426986;28;20089;-57
2022/01/05 13:50:36;;;;;;;5.20;2.22;;;;;;;4.93;61.60;99312.53;10448464;28;20036;-57
2022/01/05 13:55:41;;;;;;;3.80;1.58;;;;;;;4.87;62.07;99283.97;10447790;28;20143;-57
2022/01/05 14:00:46;;;;;;;4.25;1.58;;;;;;;4.97;61.20;99307.91;10441847;28;20207;-57
2022/01/05 14:05:47;;;;;;;6.35;1.50;;;;;;;5.08;61.34;99320.31;10436924;28;20048;-57
2022/01/05 14:10:49;;;;;;;4.35;1.92;;;;;;;5.09;61.25;99316.72;10444692;28;20183;-57
2022/01/05 14:15:59;;;;;;;6.28;2.70;;;;;;;5.08;61.05;99309.75;10440792;28;20067;-56
2022/01/05 14:21:01;;;;;;;4.38;1.27;;;;;;;5.21;61.29;99315.81;10442778;28;20128;-57
2022/01/05 14:26:02;;;;;;;4.40;1.92;;;;;;;5.21;61.99;99336.94;10441008;28;20187;-57
2022/01/05 14:31:11;;;;;;;7.53;2.22;;;;;;;5.04;62.18;99339.94;10428661;28;20219;-57
2022/01/05 14:36:32;;;;;;;5.53;1.90;;;;;;;4.91;62.69;99340.81;10448276;28;20078;-57
2022/01/05 14:41:40;;;;;;;6.63;1.88;;;;;;;4.86;63.24;99352.66;10437950;28;20143;-56
2022/01/05 14:46:49;;;;;;;7.35;2.00;;;;;;;4.87;63.36;99333.25;10421979;28;20052;-56
2022/01/05 14:51:51;;;;;;;6.20;2.42;;;;;;;5.00;62.94;99363.06;10431425;28;20056;-56
2022/01/05 14:56:54;;;;;;;4.32;1.55;;;;;;;4.91;63.24;99351.38;10436679;28;20049;-56
2022/01/05 15:01:56;;;;;;;5.60;1.70;;;;;;;4.92;63.98;99355.72;10440193;28;20049;-57
2022/01/05 15:06:57;;;;;;;3.90;1.45;;;;;;;4.92;63.58;99366.25;10418137;28;20052;-57
2022/01/05 15:11:59;;;;;;;4.00;1.55;;;;;;;4.87;63.88;99355.19;10441414;28;20584;-57
2022/01/05 15:17:00;;;;;;;5.03;1.63;;;;;;;4.83;63.96;99347.59;10439665;28;20126;-57
2022/01/05 15:22:02;;;;;;;7.30;1.58;;;;;;;4.87;64.19;99360.44;10441634;28;20189;-57
2022/01/05 15:27:05;;;;;;;5.43;1.35;;;;;;;4.90;64.00;99369.94;10425128;28;20060;-56
2022/01/05 15:32:06;;;;;;;4.47;1.40;;;;;;;4.89;64.03;99379.63;10447453;28;20676;-57
2022/01/05 15:37:08;;;;;;;8.23;1.90;;;;;;;4.94;64.30;99398.63;10441964;28;20055;-56
2022/01/05 15:42:09;;;;;;;8.52;2.03;;;;;;;4.81;64.11;99394.34;10438127;28;20156;-57
2022/01/05 15:47:11;;;;;;;4.25;2.20;;;;;;;4.95;64.37;99421.41;10436813;28;20098;-56
2022/01/05 15:52:12;;;;;;;2.70;1.63;;;;;;;5.01;64.08;99424.56;10440110;28;20483;-57
2022/01/05 15:57:29;;;;;;;5.60;2.30;;;;;;;5.03;64.61;99427.94;10437391;28;20060;-56
2022/01/05 16:02:32;;;;;;;4.80;2.28;;;;;;;4.91;64.40;99432.31;10430444;28;20120;-57
2022/01/05 16:07:33;;;;;;;4.40;2.55;;;;;;;4.87;64.94;99436.09;10419665;28;20222;-57
2022/01/05 16:12:35;;;;;;;6.63;1.95;;;;;;;4.76;65.05;99436.84;10450270;22;20083;-61
2022/01/05 16:17:37;;;;;;;6.88;1.80;;;;;;;4.74;65.61;99442.22;10442677;28;20118;-60
2022/01/05 16:22:39;;;;;;;6.22;2.15;;;;;;;4.63;65.86;99442.09;10446217;28;20193;-60
2022/01/05 16:27:42;;;;;;;6.55;1.75;;;;;;;4.57;65.90;99459.19;10453563;28;20528;-60
2022/01/05 16:32:44;;;;;;;4.25;2.05;;;;;;;4.63;66.55;99459.72;10455675;28;20044;-60
2022/01/05 16:38:04;;;;;;;4.07;1.95;;;;;;;4.63;66.47;99467.63;10457298;28;20181;-60
2022/01/05 16:43:07;;;;;;;3.75;2.47;;;;;;;4.58;66.78;99473.22;10453974;28;20052;-60
2022/01/05 16:48:10;;;;;;;6.50;2.17;;;;;;;4.48;66.62;99480.06;10466923;28;20048;-60
2022/01/05 16:53:11;;;;;;;5.78;2.28;;;;;;;4.47;66.99;99484.47;10466870;28;20130;-61
2022/01/05 17:03:33;;;;;;;3.95;1.70;;;;;;;4.46;67.00;99498.63;10461682;28;20044;-61
2022/01/05 17:08:35;;;;;;;7.40;2.42;;;;;;;4.44;66.87;99508.41;10460119;28;20075;-61
2022/01/05 17:13:37;;;;;;;6.30;2.72;;;;;;;4.44;67.26;99503.13;10461105;28;20048;-61
2022/01/05 17:18:41;;;;;;;4.97;1.85;;;;;;;4.48;67.52;99512.53;10461796;28;20059;-61
2022/01/05 17:23:46;;;;;;;8.43;2.05;;;;;;;4.42;67.81;99507.66;10461884;28;20048;-61
2022/01/05 17:28:47;;;;;;;5.22;2.10;;;;;;;4.44;67.74;99526.84;10459565;28;20044;-60
2022/01/05 17:33:50;;;;;;;5.75;2.20;;;;;;;4.39;68.36;99534.22;10453181;28;20170;-60
2022/01/05 17:38:53;;;;;;;5.35;2.40;;;;;;;4.50;68.13;99541.41;10457131;28;20058;-60
2022/01/05 17:43:54;;;;;;;6.88;2.05;;;;;;;4.51;68.47;99528.13;10454752;28;20047;-61
2022/01/05 17:48:56;;;;;;;5.30;2.30;;;;;;;4.54;68.23;99537.63;10461161;28;20064;-61
2022/01/05 17:53:58;;;;;;;4.40;2.20;;;;;;;4.48;68.68;99544.16;10460497;28;20054;-60
2022/01/05 17:58:59;;;;;;;9.73;2.47;;;;;;;4.48;69.67;99543.31;10463269;28;20495;-60
2022/01/05 18:04:01;;;;;;;6.25;2.28;;;;;;;4.50;68.94;99552.78;10462052;28;20140;-61
2022/01/05 18:09:04;;;;;;;4.57;2.03;;;;;;;4.54;68.83;99558.72;10455644;28;20406;-62
2022/01/05 18:14:05;;;;;;;4.60;1.77;;;;;;;4.63;69.04;99560.75;10459010;28;20619;-60
2022/01/05 18:19:07;;;;;;;6.95;2.03;;;;;;;4.64;68.73;99554.53;10462703;28;20611;-62
2022/01/05 18:24:10;;;;;;;7.93;2.63;;;;;;;4.66;68.74;99572.88;10459203;28;20529;-61
2022/01/05 18:29:12;;;;;;;6.20;2.60;;;;;;;4.65;68.55;99565.91;10463385;28;20141;-61
2022/01/05 18:34:14;;;;;;;10.77;3.25;;;;;;;4.68;69.02;99566.53;10463592;28;20803;-63
2022/01/05 18:39:20;;;;;;;5.68;2.22;;;;;;;4.62;69.19;99571.38;10449924;28;20075;-60
2022/01/05 18:44:41;;;;;;;;;;;;;;;4.68;69.12;99576.25;10456835;28;20048;-60
2022/01/05 18:49:42;;;;;;;5.55;2.30;;;;;;;4.66;68.78;99594.81;10461819;28;20636;-59
2022/01/05 18:54:44;;;;;;;7.38;2.90;;;;;;;4.68;69.39;99592.06;10458592;28;20126;-63
2022/01/05 18:59:46;;;;;;;7.38;2.40;;;;;;;4.71;69.61;99594.50;10449405;28;20112;-60
2022/01/05 19:04:48;;;;;;;7.05;2.42;;;;;;;4.75;69.39;99598.63;10452872;28;20189;-60
2022/01/05 19:09:50;;;;;;;6.03;2.55;;;;;;;4.73;69.17;99603.16;10452757;28;20048;-62
2022/01/05 19:14:51;;;;;;;6.70;2.85;;;;;;;4.74;69.24;99610.09;10455145;28;20055;-60
2022/01/05 19:19:52;;;;;;;7.57;2.88;;;;;;;4.74;69.40;99618.00;10456307;28;20058;-60
2022/01/05 19:24:54;;;;;;;5.72;2.60;;;;;;;4.87;69.76;99620.69;10454392;28;20052;-61
2022/01/05 19:30:16;;;;;;;5.63;2.90;;;;;;;4.91;69.64;99630.94;10458548;28;20049;-60
2022/01/05 19:35:17;;;;;;;6.75;2.88;;;;;;;4.90;69.80;99638.94;10452391;28;20076;-60
2022/01/05 19:40:19;;;;;;;5.97;3.53;;;;;;;5.02;68.76;99647.84;10455089;28;20048;-60
2022/01/05 19:45:20;;;;;;;4.53;2.50;;;;;;;5.01;69.22;99656.69;10459436;28;20479;-60
2022/01/05 19:50:23;;;;;;;8.50;3.38;;;;;;;5.07;69.03;99662.38;10460971;28;20130;-61
2022/01/05 19:55:27;;;;;;;8.45;2.75;;;;;;;5.05;69.65;99674.00;10454512;28;20196;-60
2022/01/05 20:00:29;;;;;;;7.15;3.10;;;;;;;5.18;69.10;99672.25;10461243;28;20487;-62
2022/01/05 20:05:36;;;;;;;8.60;2.95;;;;;;;5.25;69.11;99662.94;10465945;28;20119;-62
2022/01/05 20:10:37;;;;;;;4.63;2.50;;;;;;;5.28;69.49;99675.97;10461515;28;20056;-62
2022/01/05 20:15:43;;;;;;;6.00;3.03;;;;;;;5.21;69.07;99679.94;10464188;28;20047;-60
2022/01/05 20:20:44;;;;;;;6.28;3.40;;;;;;;5.21;69.95;99674.69;10467765;28;20440;-61
2022/01/05 20:25:46;;;;;;;4.57;2.80;;;;;;;5.23;69.98;99682.50;10461507;28;20131;-60
2022/01/05 20:30:47;;;;;;;7.63;2.97;;;;;;;5.23;69.53;99667.50;10462468;28;20055;-62
2022/01/05 20:35:49;;;;;;;6.68;2.80;;;;;;;5.27;69.83;99690.09;10458991;28;20101;-61
2022/01/05 20:40:51;;;;;;;7.38;2.60;;;;;;;5.05;70.32;99680.13;10456209;28;20044;-60
2022/01/05 20:45:54;;;;;;;7.28;3.22;;;;;;;5.06;70.26;99688.88;10464647;28;20167;-61
2022/01/05 20:50:56;;;;;;;6.38;3.10;;;;;;;5.02;70.91;99690.06;10454614;28;20127;-61
2022/01/05 20:55:57;;;;;;;5.32;3.25;;;;;;;5.15;70.60;99696.19;10460189;28;20189;-62
2022/01/05 21:00:59;;;;;;;8.77;4.60;;;;;;;5.19;70.50;99705.56;10460762;28;20139;-61
2022/01/05 21:06:00;;;;;;;8.40;3.35;;;;;;;5.17;70.72;99696.94;10456028;28;20139;-60
2022/01/05 21:11:02;;;;;;;4.18;2.45;;;;;;;5.22;71.00;99697.47;10456580;28;21073;-61
2022/01/05 21:16:03;;;;;;;6.35;2.97;;;;;;;5.35;70.96;99702.75;10460547;28;20040;-60
2022/01/05 21:21:05;;;;;;;7.95;3.45;;;;;;;5.24;71.75;99711.41;10459800;28;20057;-60
2022/01/05 21:26:06;;;;;;;9.13;3.05;;;;;;;5.19;72.34;99717.94;10458975;28;20181;-61
2022/01/05 21:31:08;;;;;;;6.30;3.15;;;;;;;5.14;72.87;99721.72;10458555;28;20044;-60
2022/01/05 21:36:10;;;;;;;6.30;3.70;;;;;;;5.17;72.87;99723.31;10464710;28;20052;-60
2022/01/05 21:41:12;;;;;;;7.93;4.00;;;;;;;5.19;74.07;99716.13;10457851;28;20185;-61
2022/01/05 21:46:13;;;;;;;8.73;3.28;;;;;;;5.24;74.34;99724.59;10459229;28;20048;-61
2022/01/05 21:51:16;;;;;;;6.10;3.85;;;;;;;5.27;74.76;99742.88;10458049;28;21577;-61
2022/01/05 21:56:17;;;;;;;5.75;3.03;;;;;;;5.22;75.25;99734.41;10461181;28;20138;-61
2022/01/05 22:01:19;;;;;;;4.40;3.00;;;;;;;5.23;75.55;99725.53;10461021;28;20101;-61
2022/01/05 22:06:21;;;;;;;8.73;3.45;;;;;;;5.13;76.40;99732.38;10454048;28;20167;-61
2022/01/05 22:11:22;;;;;;;5.05;3.42;;;;;;;5.12;76.94;99735.97;10453735;28;20121;-60
2022/01/05 22:16:24;;;;;;;11.07;4.68;;;;;;;5.20;77.20;99741.59;10451895;28;20105;-61
2022/01/05 22:21:26;;;;;;;8.63;3.45;;;;;;;5.19;77.90;99754.88;10452450;28;20043;-61
2022/01/05 22:26:27;;;;;;;5.38;2.95;;;;;;;5.19;78.36;99750.44;10451995;28;20059;-61
2022/01/05 22:31:30;;;;;;;6.75;4.47;;;;;;;5.21;78.64;99755.59;10470511;28;20060;-60
2022/01/05 22:36:31;;;;;;;4.70;3.08;;;;;;;5.28;78.46;99764.81;10472352;28;20055;-60
2022/01/05 22:41:34;;;;;;;6.88;3.05;;;;;;;5.38;78.20;99770.34;10473656;28;20090;-60
2022/01/05 22:46:35;;;;;;;5.22;2.78;;;;;;;5.35;77.83;99774.03;10478204;28;20048;-61
2022/01/05 22:51:37;;;;;;;4.70;3.47;;;;;;;5.37;77.88;99773.94;10474670;28;20047;-60
2022/01/05 22:56:38;;;;;;;7.22;3.38;;;;;;;5.49;77.53;99775.75;10473187;28;20054;-60
2022/01/05 23:01:40;;;;;;;7.20;3.40;;;;;;;5.46;77.62;99779.44;10467106;28;20494;-62
2022/01/05 23:06:41;;;;;;;5.63;3.28;;;;;;;5.47;77.53;99780.28;10479237;28;20402;-63
2022/01/05 23:11:44;;;;;;;4.15;2.83;;;;;;;5.40;77.49;99784.28;10470404;28;20072;-62
2022/01/05 23:16:46;;;;;;;6.53;2.90;;;;;;;5.34;77.40;99795.25;10475500;28;20483;-61
2022/01/05 23:21:47;;;;;;;5.30;3.17;;;;;;;5.41;77.43;99801.81;10480928;28;20340;-62
2022/01/05 23:26:49;;;;;;;3.97;2.67;;;;;;;5.46;76.79;99800.56;10478023;28;20123;-60
2022/01/05 23:31:50;;;;;;;6.70;2.92;;;;;;;5.44;76.81;99791.06;10474829;28;20128;-61
2022/01/05 23:36:53;;;;;;;4.90;2.95;;;;;;;5.39;76.61;99793.13;10478205;28;20052;-65
2022/01/05 23:41:56;;;;;;;4.95;2.45;;;;;;;5.45;76.55;99790.94;10469970;28;20076;-61
2022/01/05 23:46:57;;;;;;;6.57;3.28;;;;;;;5.41;75.92;99792.09;10473500;28;20114;-60
2022/01/05 23:51:59;;;;;;;6.07;2.65;;;;;;;5.30;76.66;99791.97;10476425;28;20131;-60
2022/01/05 23:57:00;;;;;;;3.92;2.35;;;;;;;5.37;77.27;99801.16;10467875;28;20072;-61
